ADDS METAR Data INFO
IDs: Format: Raw Decoded Include TAF

Data at: 2030 UTC 16 Dec 2017

KRCR 162015Z AUTO 22006KT 10SM CLR 08/M01 A2994 RMK AO2
KRCR 161955Z AUTO 23007KT 10SM CLR 08/M01 A2994 RMK AO2
KRCR 161935Z AUTO 22007KT 10SM CLR 08/M01 A2994 RMK AO2
KRCR 161915Z AUTO 22008KT 10SM CLR 08/M01 A2994 RMK AO2
KRCR 161855Z AUTO 22008KT 10SM CLR 07/M01 A2993 RMK AO2
KRCR 161835Z AUTO 23006KT 10SM CLR 07/M01 A2994 RMK AO2
KRCR 161815Z AUTO 22008KT 10SM CLR 07/M01 A2994 RMK AO2
KRCR 161755Z AUTO 22008KT 10SM CLR 06/M01 A2994 RMK AO2
KRCR 161735Z AUTO 22009KT 10SM CLR 06/M01 A2995 RMK AO2
KRCR 161715Z AUTO 23008KT 10SM CLR 06/M01 A2995 RMK AO2
KRCR 161655Z AUTO 23009KT 10SM CLR 05/M02 A2996 RMK AO2
KRCR 161635Z AUTO 23007KT 10SM CLR 05/M02 A2996 RMK AO2
KRCR 161615Z AUTO 23007G14KT 10SM CLR 05/M02 A2996 RMK AO2
KRCR 161555Z AUTO 22009KT 10SM CLR 04/M02 A2996 RMK AO2
KRCR 161535Z AUTO 23008KT 190V270 10SM CLR 03/M02 A2995 RMK AO2
KRCR 161515Z AUTO 23006KT 10SM CLR 03/M02 A2994 RMK AO2
KRCR 161455Z AUTO 24006KT 10SM CLR 02/M02 A2994 RMK AO2
KRCR 161435Z AUTO 25005KT 10SM CLR 02/M02 A2994 RMK AO2
KRCR 161415Z AUTO 23004KT 10SM CLR 02/M03 A2993 RMK AO2
KRCR 161355Z AUTO 22005KT 10SM CLR 01/M03 A2993 RMK AO2
KRCR 161335Z AUTO 24006KT 10SM CLR 01/M02 A2992 RMK AO2
KRCR 161315Z AUTO 21005KT 10SM SCT090 01/M02 A2993 RMK AO2
KRCR 161255Z AUTO 22006KT 10SM SCT090 02/M02 A2993 RMK AO2
KRCR 161235Z AUTO 21010G15KT 10SM SCT090 02/M02 A2991 RMK AO2
KRCR 161215Z AUTO 21009G14KT 10SM SCT090 02/M02 A2991 RMK AO2
KRCR 161155Z AUTO 21011G17KT 10SM SCT100 02/M02 A2991 RMK AO2
KRCR 161135Z AUTO 21012G17KT 10SM CLR 02/M02 A2991 RMK AO2
KRCR 161115Z AUTO 21012G16KT 10SM CLR 02/M02 A2990 RMK AO2
KRCR 161055Z AUTO 20010KT 10SM SCT090 SCT110 02/M02 A2991 RMK AO2
KRCR 161035Z AUTO 20010G15KT 10SM SCT090 02/M02 A2991 RMK AO2
KRCR 161015Z AUTO 21009G14KT 10SM SCT100 02/M03 A2992 RMK AO2
KRCR 160955Z AUTO 21009G14KT 10SM SCT100 02/M03 A2994 RMK AO2
KRCR 160935Z AUTO 21009G14KT 10SM SCT100 02/M03 A2994 RMK AO2
KRCR 160915Z AUTO 21010KT 10SM SCT100 02/M03 A2993 RMK AO2
KRCR 160855Z AUTO 22009G14KT 10SM SCT100 02/M04 A2993 RMK AO2
KRCR 160835Z AUTO 23008G15KT 10SM SCT100 02/M04 A2994 RMK AO2
KRCR 160815Z AUTO 22008KT 10SM CLR 02/M04 A2995 RMK AO2
KRCR 160755Z AUTO 23010KT 10SM CLR 02/M04 A2995 RMK AO2
KRCR 160735Z AUTO 23010KT 10SM CLR 02/M04 A2995 RMK AO2
KRCR 160715Z AUTO 24009G18KT 10SM SCT095 02/M03 A2996 RMK AO2
KRCR 160655Z AUTO 23011KT 10SM SCT060 BKN095 02/M03 A2995 RMK AO2
KRCR 160635Z AUTO 24011G17KT 10SM BKN060 OVC095 02/M03 A2995 RMK AO2
KRCR 160615Z AUTO 24010G17KT 10SM OVC060 02/M03 A2995 RMK AO2
KRCR 160555Z AUTO 23011G17KT 10SM OVC060 02/M03 A2995 RMK AO2
KRCR 160535Z AUTO 23014G19KT 10SM OVC050 02/M04 A2995 RMK AO2
KRCR 160515Z AUTO 24013KT 10SM OVC050 01/M04 A2995 RMK AO2
KRCR 160455Z AUTO 23010G16KT 10SM OVC050 01/M04 A2995 RMK AO2
KRCR 160435Z AUTO 22009G15KT 10SM OVC048 01/M04 A2995 RMK AO2
KRCR 160415Z AUTO 22010KT 10SM OVC048 01/M04 A2995 RMK AO2
KRCR 160355Z AUTO 23010G15KT 10SM OVC046 01/M05 A2996 RMK AO2
KRCR 160335Z AUTO 23011KT 10SM SCT042 OVC049 01/M05 A2997 RMK AO2
KRCR 160315Z AUTO 22009KT 10SM SCT040 OVC049 01/M05 A2996 RMK AO2
KRCR 160255Z AUTO 23010G15KT 10SM OVC038 01/M05 A2997 RMK AO2
KRCR 160235Z AUTO 23010KT 10SM OVC038 01/M05 A2996 RMK AO2
KRCR 160215Z AUTO 24010G14KT 10SM OVC036 01/M05 A2996 RMK AO2
KRCR 160155Z AUTO 23011G16KT 10SM BKN038 OVC045 00/M05 A2996 RMK AO2
KRCR 160135Z AUTO 22009KT 10SM OVC038 00/M05 A2996 RMK AO2
KRCR 160115Z AUTO 23010G15KT 10SM OVC038 01/M05 A2996 RMK AO2
KRCR 160055Z AUTO 24009G15KT 10SM OVC038 01/M05 A2996 RMK AO2
KRCR 160035Z AUTO 23007KT 10SM OVC038 00/M05 A2996 RMK AO2
KRCR 160015Z AUTO 23008KT 10SM OVC038 00/M05 A2996 RMK AO2
KRCR 152355Z AUTO 23006KT 10SM OVC038 00/M05 A2995 RMK AO2
KRCR 152335Z AUTO 23005KT 10SM OVC038 00/M05 A2995 RMK AO2
KRCR 152315Z AUTO 24005KT 10SM OVC040 00/M06 A2995 RMK AO2
KRCR 152255Z AUTO 25006KT 10SM OVC040 00/M06 A2995 RMK AO2
KRCR 152235Z AUTO 26006KT 10SM OVC040 00/M06 A2994 RMK AO2
KRCR 152215Z AUTO 25006KT 10SM OVC040 00/M06 A2994 RMK AO2
KRCR 152155Z AUTO 26007KT 10SM OVC042 00/M07 A2993 RMK AO2
KRCR 152135Z AUTO 26006KT 10SM OVC042 00/M07 A2993 RMK AO2
KRCR 152115Z AUTO 28007KT 10SM OVC042 00/M07 A2993 RMK AO2
KRCR 152055Z AUTO 28007KT 10SM OVC044 00/M08 A2993 RMK AO2
KRCR 152035Z AUTO 28007G16KT 10SM BKN046 00/M08 A2993 RMK AO2
KRCR 152015Z AUTO 28012G15KT 10SM CLR 00/M08 A2993 RMK AO2
KRCR 151955Z AUTO 26011G17KT 10SM CLR 00/M08 A2992 RMK AO2
KRCR 151935Z AUTO 28010G18KT 10SM SCT037 00/M07 A2992 RMK AO2
KRCR 151915Z AUTO 27011G15KT 10SM OVC037 00/M07 A2992 RMK AO2
KRCR 151855Z AUTO 28010G18KT 10SM SCT032 OVC038 00/M07 A2992 RMK AO2
KRCR 151835Z AUTO 28012G19KT 10SM OVC030 00/M07 A2992 RMK AO2
KRCR 151815Z AUTO 27012G22KT 10SM OVC030 M01/M07 A2993 RMK AO2
KRCR 151755Z AUTO 27012G18KT 10SM SCT007 SCT019 OVC032 M01/M06 A2993 RMK AO2
KRCR 151735Z AUTO 28011G19KT 4SM -SN BKN007 BKN012 OVC018 M01/M05 A2993 RMK AO2
KRCR 151715Z AUTO 28009G18KT 5SM -SN SCT009 OVC014 M01/M05 A2993 RMK AO2
KRCR 151655Z AUTO 27013G19KT 3SM -SN SCT007 BKN010 OVC014 M01/M04 A2993 RMK AO2
KRCR 151635Z AUTO 26010G15KT 2 1/2SM -SN SCT007 BKN012 OVC018 M01/M04 A2994 RMK AO2 VIS 1 1/2V5
KRCR 151615Z AUTO 26011G18KT 4SM -SN SCT007 SCT011 OVC017 M01/M05 A2994 RMK AO2
KRCR 151555Z AUTO 25009G16KT 5SM -SN SCT007 BKN017 BKN030 M02/M05 A2994 RMK AO2
KRCR 151535Z AUTO 26010KT 10SM SCT018 BKN030 M02/M05 A2994 RMK AO2
KRCR 151515Z AUTO 25011KT 10SM SCT020 BKN026 M02/M05 A2994 RMK AO2
KRCR 151455Z AUTO 24011G15KT 10SM BKN024 M02/M06 A2994 RMK AO2
KRCR 151435Z AUTO 23011KT 10SM BKN022 M02/M06 A2993 RMK AO2
KRCR 151415Z AUTO 24010G14KT 10SM BKN024 M03/M07 A2994 RMK AO2
KRCR 151355Z AUTO 23010KT 10SM BKN028 BKN033 M03/M07 A2994 RMK AO2
KRCR 151335Z AUTO 23010G15KT 10SM OVC030 M03/M07 A2994 RMK AO2
KRCR 151315Z AUTO 24009KT 10SM OVC032 M03/M07 A2994 RMK AO2
KRCR 151255Z AUTO 21009KT 10SM OVC032 M03/M08 A2994 RMK AO2
KRCR 151235Z AUTO 21006KT 10SM OVC030 M03/M08 A2994 RMK AO2
KRCR 151215Z AUTO 22008KT 10SM OVC030 M03/M08 A2995 RMK AO2
KRCR 151155Z AUTO 21007KT 10SM OVC028 M04/M08 A2995 RMK AO2
KRCR 151135Z AUTO 22006KT 10SM BKN030 BKN085 M04/M08 A2996 RMK AO2
KRCR 151115Z AUTO 22006KT 10SM SCT032 SCT085 M04/M08 A2997 RMK AO2
KRCR 151055Z AUTO 23006KT 10SM BKN032 BKN085 M05/M08 A2997 RMK AO2
KRCR 151035Z AUTO 23005KT 10SM OVC032 M05/M08 A2997 RMK AO2
KRCR 151015Z AUTO 22004KT 10SM OVC032 M05/M08 A2997 RMK AO2
KRCR 150955Z AUTO 22004KT 10SM SCT032 SCT100 M06/M08 A2998 RMK AO2
KRCR 150935Z AUTO 25003KT 10SM SCT100 M06/M08 A2999 RMK AO2
KRCR 150915Z AUTO 22003KT 10SM SCT100 M05/M08 A2999 RMK AO2
KRCR 150855Z AUTO 00000KT 10SM SCT100 M05/M08 A2999 RMK AO2
KRCR 150835Z AUTO 24003KT 10SM CLR M05/M08 A3000 RMK AO2